Deep River, Iowa
Current Conditions -  °F | °C
As of 1:55 AM on Sunday 26 Oct 2014 (Local Time) from KGGI Reporting Station
Clear Clear  
Wind Chill: 49°   Ceiling: Unl
Heat Index: 49°   Visibility: 10mi
Dew Point: 33°   Wind: 3mph
Humidity: 54%   Direction: 20°NNE
Pressure: 30.05"   Gusts: NA
Location:  41.58°N, 92.37°W
Report Text: KGGI 260655Z AUTO 02003KT 10SM CLR 10/01 A3005 RMK AO2 T00950007
Loading
Personal Weather Stations






























Interactive Weather Map New forecast layout! Learn more

10-Day Weather Forecast

Advertisements
Track Severe Weather on mobile